Time;durP1;ratioP1;P1;durP2;ratioP2;P2;SDS_P1;SDS_P2;PMS_P1;PMS_P2;Temp;Humidity;BMP_temperature;BMP_pressure;BME280_temperature;BME280_humidity;BME280_pressure;Samples;Min_cycle;Max_cycle;Signal;HPM_P1;HPM_P2
2022/07/14 00:01:00;;;;;;;1.77;1.10;;;19.10;99.90;;;;;;5013400;28;20029;-73
2022/07/14 00:03:26;;;;;;;1.15;1.00;;;19.30;99.90;;;;;;5014071;28;20400;-73
2022/07/14 00:05:52;;;;;;;2.47;1.00;;;19.10;99.90;;;;;;5013523;28;20053;-73
2022/07/14 00:08:18;;;;;;;3.20;1.10;;;18.90;99.90;;;;;;5013682;28;20116;-73
2022/07/14 00:10:44;;;;;;;3.88;1.30;;;18.80;99.90;;;;;;5013280;28;20033;-73
2022/07/14 00:13:09;;;;;;;3.35;1.23;;;18.60;99.90;;;;;;5013735;28;20484;-73
2022/07/14 00:15:35;;;;;;;2.38;1.00;;;18.90;99.90;;;;;;5013885;28;20496;-73
2022/07/14 00:18:01;;;;;;;2.50;1.00;;;18.90;99.90;;;;;;5014005;28;20022;-73
2022/07/14 00:20:26;;;;;;;2.90;1.23;;;18.90;99.90;;;;;;5013145;28;20026;-73
2022/07/14 00:22:53;;;;;;;3.10;1.45;;;19.00;99.90;;;;;;5013628;28;20033;-73
2022/07/14 00:25:19;;;;;;;2.00;1.00;;;19.00;99.90;;;;;;5013552;28;20048;-73
2022/07/14 00:27:46;;;;;;;3.45;1.10;;;18.90;99.90;;;;;;5013976;28;20485;-73
2022/07/14 00:30:11;;;;;;;1.77;1.20;;;19.10;99.90;;;;;;5013170;28;20018;-73
2022/07/14 00:32:37;;;;;;;3.58;1.10;;;18.90;99.90;;;;;;5013054;28;20538;-73
2022/07/14 00:35:05;;;;;;;2.00;1.02;;;18.90;99.90;;;;;;5013707;28;20435;-73
2022/07/14 00:37:30;;;;;;;1.95;1.20;;;18.80;99.90;;;;;;5013381;28;20022;-73
2022/07/14 00:39:56;;;;;;;1.70;1.33;;;18.20;99.90;;;;;;5012028;28;20488;-73
2022/07/14 00:42:35;;;;;;;1.20;1.10;;;18.20;99.90;;;;;;5012618;28;20029;-73
2022/07/14 00:45:05;;;;;;;2.33;1.38;;;18.20;99.90;;;;;;5013311;28;20025;-73
2022/07/14 00:47:30;;;;;;;3.58;1.00;;;18.30;99.90;;;;;;5030183;28;20480;-73
2022/07/14 00:49:56;;;;;;;2.67;1.33;;;18.30;99.90;;;;;;5030591;28;20035;-73
2022/07/14 00:52:24;;;;;;;4.22;1.30;;;18.50;99.90;;;;;;5012459;28;20032;-73
2022/07/14 00:54:50;;;;;;;2.75;1.20;;;18.20;99.90;;;;;;5012835;28;20484;-73
2022/07/14 00:57:16;;;;;;;2.13;1.33;;;18.00;99.90;;;;;;5008533;28;20117;-73
2022/07/14 00:59:42;;;;;;;1.58;1.30;;;17.70;99.90;;;;;;5004248;28;20022;-73
2022/07/14 01:02:08;;;;;;;5.82;1.50;;;18.20;99.90;;;;;;5012339;28;20026;-73
2022/07/14 01:04:34;;;;;;;1.30;1.10;;;18.50;99.90;;;;;;5012936;28;20022;-73
2022/07/14 01:06:59;;;;;;;4.63;1.30;;;18.20;99.90;;;;;;5012811;28;20280;-73
2022/07/14 01:09:25;;;;;;;3.60;1.45;;;18.20;99.90;;;;;;5013530;28;20539;-73
2022/07/14 01:11:51;;;;;;;2.65;1.27;;;18.40;99.90;;;;;;5015640;28;20025;-73
2022/07/14 01:14:17;;;;;;;3.30;1.55;;;18.40;99.90;;;;;;5022274;28;20014;-73
2022/07/14 01:16:42;;;;;;;3.25;1.58;;;18.30;99.90;;;;;;5012637;28;20029;-73
2022/07/14 01:19:08;;;;;;;2.83;1.30;;;18.20;99.90;;;;;;5012508;28;20029;-73
2022/07/14 01:21:34;;;;;;;2.92;1.60;;;18.30;99.90;;;;;;5014018;28;20029;-73
2022/07/14 01:24:00;;;;;;;2.55;1.40;;;18.50;99.90;;;;;;5030908;28;20083;-73
2022/07/14 01:26:25;;;;;;;1.85;1.35;;;18.40;99.90;;;;;;5032319;28;20028;-73
2022/07/14 01:28:51;;;;;;;3.33;1.20;;;18.30;99.90;;;;;;5032280;28;20379;-73
2022/07/14 01:31:17;;;;;;;3.25;1.30;;;18.40;99.90;;;;;;5031446;28;20531;-73
2022/07/14 01:33:42;;;;;;;3.47;1.20;;;18.30;99.90;;;;;;5030974;28;20418;-73
2022/07/14 01:36:08;;;;;;;2.40;1.55;;;18.50;99.90;;;;;;5030921;28;20064;-73
2022/07/14 01:38:33;;;;;;;2.97;1.20;;;18.70;99.90;;;;;;5030781;28;20031;-73
2022/07/14 01:40:59;;;;;;;1.55;1.33;;;18.70;99.90;;;;;;5031396;28;20483;-73
2022/07/14 01:43:24;;;;;;;4.68;1.60;;;18.80;99.90;;;;;;5030762;28;20060;-73
2022/07/14 01:45:50;;;;;;;3.78;1.50;;;18.60;99.90;;;;;;5031833;28;20100;-73
2022/07/14 01:48:16;;;;;;;3.10;1.80;;;18.50;99.90;;;;;;5031846;28;20056;-73
2022/07/14 01:50:41;;;;;;;1.65;1.40;;;18.40;99.90;;;;;;5022639;28;20189;-73
2022/07/14 01:53:07;;;;;;;1.70;1.40;;;18.60;99.90;;;;;;5012014;28;20049;-73
2022/07/14 01:55:34;;;;;;;1.75;1.40;;;18.70;99.90;;;;;;5011926;28;20498;-73
2022/07/14 01:57:59;;;;;;;4.20;1.65;;;18.90;99.90;;;;;;5012020;28;20105;-73
2022/07/14 02:00:25;;;;;;;1.92;1.30;;;18.90;99.90;;;;;;5011373;28;20068;-73
2022/07/14 02:02:51;;;;;;;1.52;1.30;;;18.70;99.90;;;;;;5012013;28;20029;-73
2022/07/14 02:05:16;;;;;;;1.90;1.38;;;18.80;99.90;;;;;;5011937;28;20030;-73
2022/07/14 02:07:42;;;;;;;2.25;1.60;;;18.70;99.90;;;;;;5011947;28;20034;-73
2022/07/14 02:12:52;;;;;;;3.78;1.83;;;18.70;99.90;;;;;;5011918;28;20028;-73
2022/07/14 02:15:17;;;;;;;2.92;1.58;;;18.80;99.90;;;;;;5011695;28;20025;-73
2022/07/14 02:17:43;;;;;;;1.85;1.48;;;18.90;99.90;;;;;;5011896;28;20022;-73
2022/07/14 02:20:10;;;;;;;1.67;1.30;;;18.80;99.90;;;;;;5011468;28;20041;-73
2022/07/14 02:22:36;;;;;;;2.35;1.60;;;18.90;99.90;;;;;;5011421;28;20025;-73
2022/07/14 02:25:03;;;;;;;1.50;1.40;;;18.80;99.90;;;;;;5011628;28;20225;-73
2022/07/14 02:27:28;;;;;;;2.25;1.30;;;18.90;99.90;;;;;;5011766;28;20104;-73
2022/07/14 02:29:54;;;;;;;3.10;1.42;;;18.90;99.90;;;;;;5012566;28;20105;-73
2022/07/14 02:32:20;;;;;;;2.35;1.48;;;18.90;99.90;;;;;;5015182;28;20105;-73
2022/07/14 02:34:46;;;;;;;3.28;1.73;;;19.20;99.90;;;;;;5034673;28;20116;-73
2022/07/14 02:37:12;;;;;;;3.50;1.50;;;18.90;99.90;;;;;;5035393;28;20036;-73
2022/07/14 02:39:37;;;;;;;2.45;1.45;;;18.90;99.90;;;;;;5034133;28;20057;-73
2022/07/14 02:42:04;;;;;;;1.40;1.30;;;18.50;99.90;;;;;;5034930;28;20040;-73
2022/07/14 02:44:29;;;;;;;1.75;1.25;;;18.00;99.90;;;;;;5035360;28;20403;-73
2022/07/14 02:46:55;;;;;;;1.88;1.25;;;17.60;99.90;;;;;;5033939;28;20037;-73
2022/07/14 02:49:21;;;;;;;2.95;1.63;;;17.80;99.90;;;;;;5035095;28;20541;-73
2022/07/14 02:51:46;;;;;;;1.50;1.20;;;17.90;99.90;;;;;;5017073;28;20018;-73
2022/07/14 02:54:12;;;;;;;2.88;1.58;;;17.90;99.90;;;;;;5014942;28;20026;-73
2022/07/14 02:56:38;;;;;;;1.55;1.45;;;18.00;99.90;;;;;;5015235;28;20030;-73
2022/07/14 02:59:07;;;;;;;1.75;1.40;;;17.60;99.90;;;;;;5013871;28;20025;-73
2022/07/14 03:01:33;;;;;;;2.88;1.30;;;17.70;99.90;;;;;;5027553;28;20500;-73
2022/07/14 03:03:59;;;;;;;3.88;1.50;;;17.70;99.90;;;;;;5015731;28;20056;-73
2022/07/14 03:06:25;;;;;;;2.28;1.48;;;17.80;99.90;;;;;;5013860;28;20034;-73
2022/07/14 03:08:50;;;;;;;2.88;1.42;;;17.90;99.90;;;;;;5015045;28;20061;-73
2022/07/14 03:11:16;;;;;;;1.73;1.50;;;17.80;99.90;;;;;;5014350;28;20080;-73
2022/07/14 03:13:42;;;;;;;4.38;1.38;;;17.80;99.90;;;;;;5020800;28;20495;-73
2022/07/14 03:16:09;;;;;;;2.38;1.50;;;17.90;99.90;;;;;;5034604;28;20056;-73
2022/07/14 03:18:36;;;;;;;1.90;1.38;;;17.90;99.90;;;;;;5034445;28;20104;-73
2022/07/14 03:21:05;;;;;;;1.88;1.63;;;18.00;99.90;;;;;;5033961;28;20056;-73
2022/07/14 03:23:31;;;;;;;2.78;1.70;;;17.90;99.90;;;;;;5034635;28;20030;-73
2022/07/14 03:25:56;;;;;;;4.82;1.88;;;17.60;99.90;;;;;;5034594;28;20025;-73
2022/07/14 03:28:22;;;;;;;3.20;1.55;;;17.60;99.90;;;;;;5033309;28;20485;-73
2022/07/14 03:30:54;;;;;;;2.08;1.55;;;17.70;99.90;;;;;;5032474;28;20049;-72
2022/07/14 03:33:19;;;;;;;2.70;1.60;;;17.80;99.90;;;;;;5034341;28;20017;-73
2022/07/14 03:35:45;;;;;;;3.40;1.50;;;17.90;99.90;;;;;;5034224;28;20080;-73
2022/07/14 03:38:11;;;;;;;5.82;1.77;;;18.20;99.90;;;;;;5034330;28;20026;-73
2022/07/14 03:40:37;;;;;;;2.08;1.50;;;18.20;99.90;;;;;;5033510;28;20053;-73
2022/07/14 03:43:02;;;;;;;3.40;1.50;;;18.00;99.90;;;;;;5034194;28;20025;-73
2022/07/14 03:45:28;;;;;;;2.53;1.73;;;18.00;99.90;;;;;;5034055;28;20025;-73
2022/07/14 03:47:54;;;;;;;2.00;1.52;;;17.90;99.90;;;;;;5033937;28;20535;-73
2022/07/14 03:50:19;;;;;;;2.47;1.67;;;17.70;99.90;;;;;;5027814;28;20030;-73
2022/07/14 03:52:45;;;;;;;3.95;1.88;;;17.80;99.90;;;;;;5014429;28;20057;-73
2022/07/14 03:55:11;;;;;;;3.85;1.85;;;17.90;99.90;;;;;;5014144;28;20072;-73
2022/07/14 03:57:37;;;;;;;2.42;1.60;;;17.90;99.90;;;;;;5014211;28;20022;-73
2022/07/14 04:00:04;;;;;;;1.70;1.60;;;18.10;99.90;;;;;;5014123;28;20022;-73
2022/07/14 04:02:29;;;;;;;2.03;1.55;;;18.00;99.90;;;;;;5013504;28;20014;-73
2022/07/14 04:04:55;;;;;;;4.53;1.80;;;17.70;99.90;;;;;;5012652;28;20022;-73
2022/07/14 04:07:20;;;;;;;2.42;1.83;;;17.70;99.90;;;;;;5012746;28;20061;-73
2022/07/14 04:09:46;;;;;;;1.75;1.60;;;17.80;99.90;;;;;;5012624;28;20018;-73
2022/07/14 04:12:12;;;;;;;2.42;1.70;;;17.90;99.90;;;;;;5013605;28;20014;-73
2022/07/14 04:14:37;;;;;;;1.92;1.55;;;17.90;99.90;;;;;;5013903;28;20072;-73
2022/07/14 04:17:03;;;;;;;2.63;1.77;;;17.70;99.90;;;;;;5013615;28;20100;-73
2022/07/14 04:19:29;;;;;;;3.25;1.83;;;17.70;99.90;;;;;;5013887;28;20030;-73
2022/07/14 04:21:54;;;;;;;3.40;1.80;;;17.90;99.90;;;;;;5013064;28;20128;-73
2022/07/14 04:24:20;;;;;;;4.10;1.95;;;17.90;99.90;;;;;;5012347;28;20444;-73
2022/07/14 04:26:45;;;;;;;3.30;1.58;;;18.10;99.90;;;;;;5013570;28;20034;-73
2022/07/14 04:29:11;;;;;;;1.38;1.27;;;18.10;99.90;;;;;;5013566;28;20030;-73
2022/07/14 04:31:37;;;;;;;4.78;1.77;;;18.20;99.90;;;;;;5012603;28;20034;-73
2022/07/14 04:34:03;;;;;;;2.38;2.05;;;18.10;99.90;;;;;;5008880;28;20366;-73
2022/07/14 04:36:28;;;;;;;2.53;2.13;;;17.70;99.90;;;;;;5028287;28;20477;-73
2022/07/14 04:38:56;;;;;;;3.83;2.60;;;17.90;99.90;;;;;;5013543;28;20029;-73
2022/07/14 04:41:23;;;;;;;3.38;2.25;;;17.60;99.90;;;;;;5012702;28;20111;-73
2022/07/14 04:43:48;;;;;;;5.25;1.90;;;17.70;99.90;;;;;;5013401;28;20018;-73
2022/07/14 04:46:14;;;;;;;1.77;1.50;;;18.00;99.90;;;;;;5013019;28;20032;-73
2022/07/14 04:54:07;;;;;;;2.13;1.90;;;18.40;99.90;;;;;;5012594;28;20033;-73
2022/07/14 04:56:33;;;;;;;3.20;2.17;;;18.30;99.90;;;;;;5013019;28;20022;-73
2022/07/14 04:58:58;;;;;;;2.08;1.80;;;18.50;99.90;;;;;;5013004;28;20018;-73
2022/07/14 05:01:24;;;;;;;2.20;2.00;;;18.50;99.90;;;;;;5012343;28;20030;-73
2022/07/14 05:03:50;;;;;;;2.67;2.33;;;18.60;99.90;;;;;;5012938;28;20148;-73
2022/07/14 05:06:16;;;;;;;2.40;2.10;;;18.80;99.90;;;;;;5011642;28;20116;-73
2022/07/14 05:08:42;;;;;;;2.30;2.03;;;19.00;99.90;;;;;;5012781;28;20022;-73
2022/07/14 05:11:08;;;;;;;2.53;2.05;;;19.10;99.90;;;;;;5012029;28;20040;-73
2022/07/14 05:13:33;;;;;;;2.65;1.80;;;19.00;99.90;;;;;;5012808;28;20045;-73
2022/07/14 05:15:59;;;;;;;2.28;1.70;;;19.10;99.90;;;;;;5011506;28;20030;-73
2022/07/14 05:18:25;;;;;;;2.58;1.95;;;19.30;99.90;;;;;;5012645;28;20037;-73
2022/07/14 05:20:50;;;;;;;2.00;1.60;;;19.20;99.90;;;;;;5012095;28;20040;-73
2022/07/14 05:23:16;;;;;;;2.95;1.90;;;19.10;99.90;;;;;;5012649;28;20484;-73
2022/07/14 05:25:41;;;;;;;3.45;1.90;;;19.20;99.90;;;;;;5012498;28;20033;-73
2022/07/14 05:28:07;;;;;;;4.13;1.90;;;19.40;99.90;;;;;;5012554;28;20034;-73
2022/07/14 05:30:32;;;;;;;2.35;1.88;;;19.80;99.90;;;;;;5011758;28;20030;-73
2022/07/14 05:32:58;;;;;;;3.60;1.80;;;19.70;99.90;;;;;;5017559;28;20545;-73
2022/07/14 05:35:24;;;;;;;2.20;1.90;;;19.60;99.90;;;;;;5032671;28;20053;-73
2022/07/14 05:37:49;;;;;;;4.13;1.83;;;19.80;99.90;;;;;;5031981;28;20017;-73
2022/07/14 05:40:15;;;;;;;3.10;1.80;;;19.80;99.90;;;;;;5031823;28;20030;-73
2022/07/14 05:42:41;;;;;;;3.22;2.00;;;19.70;99.90;;;;;;5032053;28;20043;-73
2022/07/14 05:45:07;;;;;;;2.30;1.70;;;19.90;99.90;;;;;;5031920;28;20021;-73
2022/07/14 05:47:33;;;;;;;2.47;2.00;;;20.00;99.90;;;;;;5031887;28;20067;-73
2022/07/14 05:49:59;;;;;;;2.38;1.85;;;20.30;99.90;;;;;;5029267;28;20064;-73
2022/07/14 05:52:24;;;;;;;3.03;1.80;;;20.40;99.90;;;;;;5011523;28;20076;-73
2022/07/14 05:54:50;;;;;;;4.05;1.73;;;20.30;99.90;;;;;;5010645;28;20014;-73
2022/07/14 05:57:16;;;;;;;3.10;1.77;;;20.40;99.90;;;;;;5011929;28;20022;-73
2022/07/14 05:59:41;;;;;;;3.70;1.75;;;20.60;99.90;;;;;;5012353;28;20022;-73
2022/07/14 06:02:07;;;;;;;3.17;2.00;;;20.70;99.90;;;;;;5011393;28;20030;-73
2022/07/14 06:04:32;;;;;;;4.40;1.70;;;20.80;99.90;;;;;;5011211;28;20538;-73
2022/07/14 06:06:58;;;;;;;2.65;1.63;;;20.70;99.90;;;;;;5012421;28;20021;-73
2022/07/14 06:09:24;;;;;;;4.15;1.90;;;20.80;99.90;;;;;;5011864;28;20030;-73
2022/07/14 06:11:49;;;;;;;4.40;1.92;;;21.00;99.90;;;;;;5011215;28;20105;-73
2022/07/14 06:14:15;;;;;;;3.10;2.03;;;20.80;99.90;;;;;;5010527;28;20480;-73
2022/07/14 06:16:42;;;;;;;5.38;1.80;;;20.70;99.90;;;;;;5007316;28;20397;-73
2022/07/14 06:19:07;;;;;;;2.10;1.90;;;20.60;99.90;;;;;;5002410;28;20032;-73
2022/07/14 06:21:33;;;;;;;3.05;1.90;;;20.50;99.90;;;;;;5011183;28;20022;-73
2022/07/14 06:23:58;;;;;;;1.85;1.70;;;20.50;99.90;;;;;;5011685;28;20037;-73
2022/07/14 06:26:24;;;;;;;3.58;1.90;;;20.50;99.90;;;;;;5011726;28;20395;-73
2022/07/14 06:28:50;;;;;;;4.80;1.88;;;20.50;99.90;;;;;;5011654;28;20489;-73
2022/07/14 06:31:15;;;;;;;2.00;1.80;;;20.60;99.90;;;;;;5011196;28;20034;-73
2022/07/14 06:33:41;;;;;;;3.97;2.20;;;20.80;99.90;;;;;;5011680;28;20104;-73
2022/07/14 06:36:08;;;;;;;4.70;1.98;;;20.80;99.90;;;;;;5011590;28;20068;-73
2022/07/14 06:38:34;;;;;;;2.03;1.83;;;21.00;99.90;;;;;;5011546;28;20420;-73
2022/07/14 06:41:00;;;;;;;3.15;1.75;;;21.10;99.90;;;;;;5011113;28;20033;-73
2022/07/14 06:43:26;;;;;;;3.35;1.98;;;21.10;99.90;;;;;;5011652;28;20412;-73
2022/07/14 06:45:51;;;;;;;4.43;2.15;;;21.10;99.90;;;;;;5010108;28;20476;-73
2022/07/14 06:48:17;;;;;;;2.15;1.90;;;21.20;99.90;;;;;;5012140;28;20033;-73
2022/07/14 06:50:43;;;;;;;3.72;2.17;;;21.30;99.90;;;;;;5010785;28;20029;-73
2022/07/14 06:53:09;;;;;;;5.25;2.13;;;21.40;99.90;;;;;;5011451;28;20034;-73
2022/07/14 06:55:34;;;;;;;3.10;1.70;;;21.30;99.90;;;;;;5011457;28;20018;-73
2022/07/14 06:58:00;;;;;;;3.28;2.00;;;21.50;99.90;;;;;;5011644;28;20025;-73
2022/07/14 07:00:25;;;;;;;2.15;1.90;;;21.70;99.90;;;;;;5027647;28;20041;-73
2022/07/14 07:02:51;;;;;;;3.40;1.80;;;21.80;99.90;;;;;;5031409;28;20465;-73
2022/07/14 07:08:01;;;;;;;2.10;1.85;;;22.00;99.90;;;;;;5031245;28;20123;-73
2022/07/14 07:10:27;;;;;;;3.33;1.83;;;22.00;99.90;;;;;;5030498;28;20076;-73
2022/07/14 07:12:54;;;;;;;3.38;2.17;;;22.10;99.90;;;;;;5031122;28;20468;-73
2022/07/14 07:15:20;;;;;;;2.33;1.75;;;22.00;99.90;;;;;;5031030;28;20029;-73
2022/07/14 07:17:46;;;;;;;2.05;1.85;;;22.20;99.90;;;;;;5034847;28;20026;-73
2022/07/14 07:20:12;;;;;;;6.18;2.10;;;22.50;99.90;;;;;;5034651;28;20029;-73
2022/07/14 07:22:38;;;;;;;6.45;2.10;;;22.80;99.90;;;;;;5034367;28;20505;-73
2022/07/14 07:25:05;;;;;;;4.13;2.42;;;22.70;99.90;;;;;;5034522;28;20088;-73
2022/07/14 07:27:31;;;;;;;3.13;2.40;;;22.50;99.90;;;;;;5034610;28;20052;-73
2022/07/14 07:30:00;;;;;;;3.83;2.30;;;22.60;99.90;;;;;;5034402;28;20037;-73
2022/07/14 07:32:26;;;;;;;4.15;2.10;;;22.70;99.90;;;;;;5032627;28;20064;-73
2022/07/14 07:34:51;;;;;;;3.78;2.05;;;22.90;99.90;;;;;;5034277;28;20025;-73
2022/07/14 07:37:17;;;;;;;3.33;2.15;;;22.90;99.90;;;;;;5034708;28;20026;-75
2022/07/14 07:39:42;;;;;;;2.65;2.00;;;23.10;99.90;;;;;;5028314;28;20465;-75
2022/07/14 07:42:08;;;;;;;3.90;2.80;;;22.90;99.90;;;;;;5013991;28;20113;-74
2022/07/14 07:44:34;;;;;;;4.00;2.53;;;22.90;99.90;;;;;;5014847;28;20461;-74
2022/07/14 07:47:00;;;;;;;3.40;2.20;;;23.10;99.90;;;;;;5014420;28;20030;-74
2022/07/14 07:49:26;;;;;;;2.70;2.00;;;23.60;99.90;;;;;;5014271;28;20515;-72
2022/07/14 07:51:57;;;;;;;6.10;2.05;;;24.00;99.90;;;;;;5013534;28;20109;-72
2022/07/14 07:54:23;;;;;;;4.70;2.10;;;24.50;99.90;;;;;;5014216;28;20037;-73
2022/07/14 07:56:49;;;;;;;3.50;2.10;;;24.60;99.90;;;;;;5014139;28;20445;-73
2022/07/14 07:59:15;;;;;;;5.97;2.50;;;24.60;99.90;;;;;;5012974;28;20049;-74
2022/07/14 08:01:41;;;;;;;4.18;2.30;;;24.50;99.90;;;;;;5013562;28;20113;-72
2022/07/14 08:04:07;;;;;;;4.45;2.33;;;24.80;99.90;;;;;;5014002;28;20120;-72
2022/07/14 08:06:33;;;;;;;2.65;2.05;;;25.20;99.90;;;;;;5014073;28;20014;-73
2022/07/14 08:08:58;;;;;;;2.60;2.10;;;24.90;99.90;;;;;;5014107;28;20375;-73
2022/07/14 08:11:24;;;;;;;2.53;2.33;;;24.90;99.90;;;;;;5013372;28;20054;-75
2022/07/14 08:13:49;;;;;;;2.35;2.03;;;24.50;99.90;;;;;;5013888;28;20409;-75
2022/07/14 08:16:15;;;;;;;4.22;2.20;;;24.50;99.90;;;;;;5013876;28;20393;-72
2022/07/14 08:18:40;;;;;;;4.78;2.40;;;24.70;99.90;;;;;;5013804;28;20018;-75
2022/07/14 08:21:06;;;;;;;2.58;2.10;;;25.00;99.90;;;;;;5013245;28;20038;-74
2022/07/14 08:23:32;;;;;;;2.10;1.90;;;24.90;99.90;;;;;;5013826;28;20061;-75
2022/07/14 08:25:58;;;;;;;3.17;2.22;;;24.80;99.90;;;;;;5013624;28;20400;-74
2022/07/14 08:28:23;;;;;;;3.03;2.13;;;24.60;99.90;;;;;;5012762;28;20057;-75
2022/07/14 08:30:49;;;;;;;2.58;2.10;;;24.60;99.90;;;;;;5012986;28;20514;-74
2022/07/14 08:33:14;;;;;;;2.40;1.98;;;24.80;99.90;;;;;;5013475;28;20022;-75
2022/07/14 08:35:40;;;;;;;2.55;2.17;;;25.20;99.90;;;;;;5013537;28;20022;-74
2022/07/14 08:38:06;;;;;;;3.45;2.30;;;25.40;99.90;;;;;;5013404;28;20032;-75
2022/07/14 08:40:33;;;;;;;3.28;2.25;;;25.70;99.90;;;;;;5012810;28;20370;-75
2022/07/14 08:42:59;;;;;;;2.88;1.90;;;26.00;99.90;;;;;;5013326;28;20026;-74
2022/07/14 08:45:26;;;;;;;2.63;1.90;;;26.30;99.90;;;;;;5013343;28;20481;-74
2022/07/14 08:47:53;;;;;;;2.22;2.03;;;26.30;99.90;;;;;;5011825;28;20038;-74
2022/07/14 08:50:20;;;;;;;4.95;1.80;;;26.20;99.90;;;;;;5012579;28;20033;-74
2022/07/14 08:52:47;;;;;;;3.38;2.08;;;26.30;99.90;;;;;;5013195;28;20663;-74
2022/07/14 08:55:15;;;;;;;4.80;1.98;;;26.70;99.90;;;;;;5013001;28;20034;-74
2022/07/14 08:57:41;;;;;;;4.13;2.05;;;26.90;99.90;;;;;;5013078;28;20026;-74
2022/07/14 09:00:11;;;;;;;2.58;1.80;;;27.20;99.90;;;;;;5012945;28;20025;-74
2022/07/14 09:02:45;;;;;;;2.70;1.55;;;26.90;99.90;;;;;;5012640;28;20021;-74
2022/07/14 09:05:13;;;;;;;4.38;1.88;;;27.40;99.90;;;;;;5013517;28;20476;-74
2022/07/14 09:07:39;;;;;;;4.57;2.20;;;26.80;99.60;;;;;;5012944;28;20434;-74
2022/07/14 09:10:10;;;;;;;3.92;2.15;;;26.60;99.90;;;;;;5012703;28;20017;-74
2022/07/14 09:12:36;;;;;;;3.60;1.90;;;26.80;99.90;;;;;;5012515;28;20034;-74
2022/07/14 09:17:59;;;;;;;2.97;1.83;;;26.80;99.90;;;;;;5013055;28;20076;-74
2022/07/14 09:20:28;;;;;;;;;;;26.50;99.90;;;;;;5008141;28;20026;-74
2022/07/14 09:22:56;;;;;;;2.67;2.13;;;26.80;99.90;;;;;;5007632;28;19928;-74
2022/07/14 09:25:23;;;;;;;2.80;2.00;;;26.80;99.90;;;;;;5012547;28;20045;-74
2022/07/14 09:27:50;;;;;;;3.20;2.08;;;26.60;99.90;;;;;;5012621;28;20026;-74
2022/07/14 09:30:17;;;;;;;5.15;2.30;;;27.10;99.90;;;;;;5011921;28;20049;-74
2022/07/14 09:32:59;;;;;;;4.10;2.38;;;27.20;99.90;;;;;;5012521;28;20480;-74
2022/07/14 09:35:33;;;;;;;3.65;1.75;;;27.80;99.90;;;;;;5012512;28;20026;-74
2022/07/14 09:37:58;;;;;;;3.25;1.92;;;27.50;98.80;;;;;;5011210;28;20802;-74
2022/07/14 09:40:25;;;;;;;4.07;2.10;;;27.30;99.10;;;;;;5011756;28;20025;-74
2022/07/14 09:43:02;;;;;;;4.70;2.20;;;27.20;99.20;;;;;;5030561;28;20060;-74
2022/07/14 09:45:36;;;;;;;3.63;2.05;;;27.10;98.90;;;;;;5031968;28;20298;-74
2022/07/14 09:48:08;;;;;;;3.38;1.80;;;27.10;98.80;;;;;;5031889;28;20041;-74
2022/07/14 09:50:59;;;;;;;3.13;2.10;;;28.10;99.30;;;;;;5023711;28;20484;-74
2022/07/14 09:53:28;;;;;;;2.55;1.63;;;28.30;98.50;;;;;;5009670;28;20065;-74
2022/07/14 09:56:08;;;;;;;2.83;1.92;;;28.20;98.20;;;;;;5011928;28;20442;-74
2022/07/14 09:58:40;;;;;;;7.13;2.55;;;28.10;97.80;;;;;;5012043;28;20033;-74
2022/07/14 10:01:08;;;;;;;2.47;1.90;;;28.20;97.70;;;;;;5011565;28;20099;-74
2022/07/14 10:03:35;;;;;;;3.13;2.10;;;28.30;98.30;;;;;;5012064;28;20690;-74
2022/07/14 10:06:02;;;;;;;2.95;2.30;;;28.20;98.30;;;;;;5011998;28;20057;-74
2022/07/14 10:08:34;;;;;;;5.35;2.30;;;27.90;98.20;;;;;;5011968;28;20373;-74
2022/07/14 10:11:05;;;;;;;6.40;1.80;;;27.80;98.30;;;;;;5011140;28;20026;-74
2022/07/14 10:13:31;;;;;;;4.63;2.00;;;27.90;98.50;;;;;;5011933;28;20034;-74
2022/07/14 10:15:57;;;;;;;2.65;1.92;;;27.80;98.00;;;;;;5012119;28;20058;-74
2022/07/14 10:18:24;;;;;;;4.68;1.95;;;28.20;97.90;;;;;;5012319;28;20435;-74
2022/07/14 10:20:52;;;;;;;3.33;1.92;;;28.40;98.10;;;;;;5011304;28;20064;-74
2022/07/14 10:23:19;;;;;;;5.05;2.20;;;28.60;98.00;;;;;;5011841;28;20437;-74
2022/07/14 10:25:57;;;;;;;4.13;2.10;;;28.90;98.40;;;;;;5011558;28;20398;-74
2022/07/14 10:28:24;;;;;;;5.88;2.50;;;29.20;97.70;;;;;;5011761;28;20080;-74
2022/07/14 10:31:25;;;;;;;5.53;2.10;;;29.00;97.00;;;;;;5011016;28;20362;-74
2022/07/14 10:34:04;;;;;;;4.60;2.50;;;29.00;97.10;;;;;;5011864;28;20026;-74
2022/07/14 10:36:40;;;;;;;2.40;2.20;;;28.60;97.50;;;;;;5011935;28;20460;-74
2022/07/14 10:39:20;;;;;;;2.75;2.03;;;28.90;97.00;;;;;;5010210;28;20037;-74
2022/07/14 10:41:57;;;;;;;4.78;2.10;;;29.20;97.20;;;;;;5011086;28;20523;-74
2022/07/14 10:44:26;;;;;;;4.78;2.40;;;28.70;96.90;;;;;;5011989;28;20557;-74
2022/07/14 10:47:06;;;;;;;5.70;2.50;;;29.00;96.80;;;;;;5011454;28;20029;-74
2022/07/14 10:50:00;;;;;;;3.35;2.35;;;29.10;96.70;;;;;;5011642;28;20411;-74
2022/07/14 10:52:28;;;;;;;3.58;2.35;;;29.60;97.00;;;;;;5012860;28;20438;-74
2022/07/14 10:55:16;;;;;;;5.43;2.22;;;29.30;96.80;;;;;;5015304;28;20471;-74
2022/07/14 10:58:00;;;;;;;4.05;2.45;;;29.00;95.80;;;;;;5015343;28;20022;-74
2022/07/14 11:00:43;;;;;;;6.65;2.30;;;29.00;95.80;;;;;;5014591;28;20030;-74
2022/07/14 11:03:25;;;;;;;4.85;2.50;;;29.40;96.00;;;;;;5015541;28;20365;-74
2022/07/14 11:06:09;;;;;;;2.85;2.42;;;30.00;96.10;;;;;;5013873;28;20026;-74
2022/07/14 11:08:40;;;;;;;2.63;2.38;;;29.60;95.80;;;;;;5015269;28;20033;-74
2022/07/14 11:11:25;;;;;;;4.47;2.20;;;29.30;96.00;;;;;;5014457;28;20037;-74
2022/07/14 11:14:12;;;;;;;4.97;2.63;;;28.90;95.70;;;;;;5015112;28;20022;-74
2022/07/14 11:16:47;;;;;;;4.13;2.10;;;28.90;95.80;;;;;;5013673;28;20029;-74
2022/07/14 11:19:35;;;;;;;3.72;2.33;;;30.20;96.30;;;;;;5013736;28;20472;-74
2022/07/14 11:22:11;;;;;;;3.97;2.70;;;30.50;95.20;;;;;;5014286;28;20030;-74
2022/07/14 11:24:45;;;;;;;7.72;2.55;;;29.80;95.50;;;;;;5014701;28;20053;-74
2022/07/14 11:27:38;;;;;;;3.78;2.50;;;30.10;95.50;;;;;;5015063;28;20033;-74
2022/07/14 11:30:16;;;;;;;8.02;2.70;;;30.20;94.70;;;;;;5015001;28;20017;-74
2022/07/14 11:32:42;;;;;;;2.47;2.28;;;30.00;95.10;;;;;;5014109;28;20091;-74
2022/07/14 11:37:59;;;;;;;4.07;2.35;;;30.70;94.50;;;;;;5012737;28;20084;-74
2022/07/14 11:40:44;;;;;;;3.90;2.65;;;30.90;95.10;;;;;;5012342;28;20531;-74
2022/07/14 11:43:28;;;;;;;4.55;2.38;;;31.00;95.00;;;;;;5011768;28;20457;-74
2022/07/14 11:46:00;;;;;;;3.47;2.30;;;30.40;95.30;;;;;;5012710;28;20022;-74
2022/07/14 11:48:31;;;;;;;4.95;2.30;;;30.00;94.80;;;;;;5013123;28;20038;-74
2022/07/14 11:51:06;;;;;;;3.05;2.25;;;30.30;95.10;;;;;;5013474;28;20101;-74
2022/07/14 11:53:33;;;;;;;3.58;2.50;;;30.40;94.80;;;;;;5014239;28;20088;-74
2022/07/14 11:56:00;;;;;;;6.47;2.40;;;30.70;94.60;;;;;;5014287;28;20025;-74
2022/07/14 11:58:28;;;;;;;5.63;2.10;;;30.90;94.80;;;;;;5014408;28;20049;-74
2022/07/14 12:00:59;;;;;;;2.80;2.38;;;31.00;94.00;;;;;;5013544;28;20040;-74
2022/07/14 12:03:25;;;;;;;7.38;2.35;;;30.50;94.60;;;;;;5012939;28;20108;-74
2022/07/14 12:05:56;;;;;;;2.92;2.60;;;30.80;94.90;;;;;;5013938;28;20036;-74
2022/07/14 12:08:27;;;;;;;4.38;2.40;;;31.20;93.90;;;;;;5013985;28;20439;-74
2022/07/14 12:10:53;;;;;;;4.30;2.38;;;31.20;94.20;;;;;;5013339;28;20021;-74
2022/07/14 12:13:19;;;;;;;3.58;2.20;;;30.70;94.00;;;;;;5014025;28;20072;-74
2022/07/14 12:15:47;;;;;;;5.30;2.53;;;30.30;94.70;;;;;;5013925;28;20022;-74
2022/07/14 12:18:13;;;;;;;4.93;2.50;;;31.20;94.80;;;;;;5013621;28;20022;-74
2022/07/14 12:20:41;;;;;;;9.40;2.58;;;31.50;93.90;;;;;;5013314;28;20032;-74
2022/07/14 12:23:07;;;;;;;8.88;2.47;;;31.20;94.70;;;;;;5013692;28;20494;-74
2022/07/14 12:25:38;;;;;;;4.70;2.20;;;31.00;93.30;;;;;;5013650;28;20033;-74
2022/07/14 12:28:07;;;;;;;7.40;2.40;;;30.80;93.00;;;;;;5014075;28;20542;-74
2022/07/14 12:30:51;;;;;;;4.32;2.15;;;30.50;93.60;;;;;;5012856;28;20026;-73
2022/07/14 12:33:24;;;;;;;5.55;2.17;;;29.90;93.40;;;;;;5013707;28;20026;-74
2022/07/14 12:35:52;;;;;;;3.47;2.17;;;30.00;93.60;;;;;;5015004;28;20022;-74
2022/07/14 12:38:19;;;;;;;6.20;2.35;;;29.80;94.10;;;;;;5033256;28;20102;-74
2022/07/14 12:40:48;;;;;;;4.95;2.13;;;29.90;93.30;;;;;;5032530;28;20044;-74
2022/07/14 12:43:13;;;;;;;5.57;2.22;;;30.50;93.10;;;;;;5033129;28;20037;-74
2022/07/14 12:46:05;;;;;;;3.03;2.55;;;30.80;93.10;;;;;;5033050;28;20033;-74
2022/07/14 12:48:52;;;;;;;5.03;2.33;;;30.70;92.60;;;;;;5033207;28;20029;-74
2022/07/14 12:51:20;;;;;;;3.08;2.30;;;30.70;92.80;;;;;;5019687;28;20152;-74
2022/07/14 12:54:02;;;;;;;3.42;2.05;;;31.10;93.10;;;;;;5012760;28;20018;-74
2022/07/14 12:56:31;;;;;;;4.88;2.55;;;30.90;92.80;;;;;;5013116;28;20029;-74
2022/07/14 12:58:59;;;;;;;5.50;2.30;;;30.50;92.80;;;;;;5013012;28;20373;-73
2022/07/14 13:01:25;;;;;;;5.57;2.80;;;30.10;93.20;;;;;;5012544;28;20052;-74
2022/07/14 13:03:55;;;;;;;4.03;2.35;;;29.90;93.00;;;;;;5013038;28;20022;-74
2022/07/14 13:06:21;;;;;;;2.83;2.20;;;29.70;93.80;;;;;;5013215;28;20527;-74
2022/07/14 13:08:47;;;;;;;3.35;2.30;;;29.60;93.70;;;;;;5012935;28;20133;-74